Nashville, Tennessee
Traffic Map
Current Weather Conditions
Nashville, Tennessee
Few Clouds
Few Clouds

Feels Like: -4°
Wind Chill: -4° Ceiling: Unl
Heat Index: Visibility: 10mi
Dew Point: -17° Wind: 7mph
Humidity: 27% Direction: 10° (N)
Pressure: 30.5in Gusts: 0mph
Raw Report DataKBNA 132053Z 01006KT 10SM FEW050 00/M17 A3050 RMK AO2 SLP333 T00001172 56019
Traffic Incident Summary
Active as of:
Severity:
Category:
InformationThere was an issue retrieving the traffic information for this location. Please try a different location or try again shortly.
Advertisements
Track Severe Weather on mobile